Time;durP1;ratioP1;P1;durP2;ratioP2;P2;SDS_P1;SDS_P2;PMS_P1;PMS_P2;Temp;Humidity;BMP_temperature;BMP_pressure;BME280_temperature;BME280_humidity;BME280_pressure;Samples;Min_cycle;Max_cycle;Signal;HPM_P1;HPM_P2
2023/07/03 00:00:19;;;;;;;12.38;0.70;;;;;;;18.28;61.07;100673.94;7356882;19;20019;-61
2023/07/03 00:02:51;;;;;;;10.90;0.80;;;;;;;18.29;61.20;100673.72;7357463;19;20105;-61
2023/07/03 00:05:21;;;;;;;8.90;0.70;;;;;;;18.30;61.29;100674.53;7361480;19;20117;-61
2023/07/03 00:07:49;;;;;;;14.57;0.90;;;;;;;18.35;61.50;100674.72;7360621;19;20010;-60
2023/07/03 00:10:17;;;;;;;9.77;0.70;;;;;;;18.33;61.17;100674.97;7360380;19;20030;-61
2023/07/03 00:12:44;;;;;;;17.35;1.42;;;;;;;18.32;61.61;100667.16;7331591;19;20018;-62
2023/07/03 00:15:12;;;;;;;7.50;0.90;;;;;;;18.21;61.40;100671.28;7307237;19;20128;-61
2023/07/03 00:17:44;;;;;;;7.90;0.93;;;;;;;18.22;62.69;100666.75;7356271;19;20014;-61
2023/07/03 00:20:13;;;;;;;7.57;0.68;;;;;;;18.24;62.28;100670.03;7357997;19;20126;-61
2023/07/03 00:22:43;;;;;;;10.57;0.60;;;;;;;18.28;62.46;100665.94;7359103;19;20040;-61
2023/07/03 00:25:11;;;;;;;7.50;0.77;;;;;;;18.29;62.93;100673.72;7358291;19;20014;-60
2023/07/03 00:27:38;;;;;;;11.32;0.82;;;;;;;18.28;62.37;100682.75;7352797;19;20618;-61
2023/07/03 00:30:06;;;;;;;23.55;2.40;;;;;;;18.23;63.06;100673.72;7358835;19;20009;-61
2023/07/03 00:32:34;;;;;;;11.02;1.25;;;;;;;18.23;63.80;100671.91;7357504;19;20085;-61
2023/07/03 00:35:02;;;;;;;6.85;0.95;;;;;;;18.25;63.66;100672.50;7359935;19;20737;-62
2023/07/03 00:37:30;;;;;;;11.80;0.98;;;;;;;18.23;62.84;100663.06;7357207;19;20760;-62
2023/07/03 00:39:58;;;;;;;10.00;0.60;;;;;;;18.12;63.22;100664.53;7359656;19;20715;-61
2023/07/03 00:42:28;;;;;;;8.18;1.23;;;;;;;18.00;63.77;100662.66;7357308;19;21264;-61
2023/07/03 00:44:55;;;;;;;12.30;1.10;;;;;;;18.00;64.93;100666.16;7356799;19;21587;-61
2023/07/03 00:47:24;;;;;;;9.73;0.80;;;;;;;18.01;64.69;100666.97;7358414;19;20022;-61
2023/07/03 00:49:52;;;;;;;16.00;0.80;;;;;;;18.03;65.24;100662.28;7357865;19;20019;-61
2023/07/03 00:52:20;;;;;;;11.65;0.90;;;;;;;18.01;65.42;100672.31;7358941;19;20516;-60
2023/07/03 00:54:48;;;;;;;11.88;1.02;;;;;;;18.02;65.70;100658.78;7359261;19;20913;-61
2023/07/03 00:57:16;;;;;;;11.05;1.00;;;;;;;18.00;65.94;100660.00;7363017;19;20037;-62
2023/07/03 00:59:44;;;;;;;11.75;1.05;;;;;;;17.95;65.85;100655.28;7366863;19;20692;-61
2023/07/03 01:02:20;;;;;;;16.13;1.05;;;;;;;17.91;65.73;100654.06;7363490;19;20038;-61
2023/07/03 01:05:00;;;;;;;9.05;1.17;;;;;;;17.83;65.60;100647.09;7366126;19;20270;-61
2023/07/03 01:07:31;;;;;;;12.05;1.23;;;;;;;17.83;66.32;100646.28;7363847;19;20026;-62
2023/07/03 01:10:06;;;;;;;13.85;0.85;;;;;;;17.84;66.27;100650.59;7366498;19;20019;-63
2023/07/03 01:12:38;;;;;;;8.63;1.10;;;;;;;17.83;66.46;100652.41;7364560;19;20085;-62
2023/07/03 01:15:10;;;;;;;11.88;0.80;;;;;;;17.84;66.91;100651.41;7353977;19;20006;-61
2023/07/03 01:17:40;;;;;;;12.20;0.70;;;;;;;17.83;66.84;100652.41;7361525;19;20015;-61
2023/07/03 01:20:14;;;;;;;11.23;1.10;;;;;;;17.88;66.56;100647.31;7362668;19;20019;-63
2023/07/03 01:22:44;;;;;;;8.60;0.80;;;;;;;17.94;67.09;100646.50;7360729;19;20029;-60
2023/07/03 01:25:18;;;;;;;10.98;1.23;;;;;;;17.92;66.60;100645.91;7361115;19;20018;-61
2023/07/03 01:27:49;;;;;;;10.02;0.80;;;;;;;17.91;66.68;100657.56;7361740;19;20760;-61
2023/07/03 01:30:21;;;;;;;12.65;1.10;;;;;;;17.88;66.73;100652.63;7361563;19;20021;-61
2023/07/03 01:32:52;;;;;;;11.07;1.08;;;;;;;17.84;67.19;100653.25;7358160;19;20014;-61
2023/07/03 01:35:22;;;;;;;15.75;1.58;;;;;;;17.83;67.65;100648.94;7363444;19;20010;-61
2023/07/03 01:37:53;;;;;;;16.85;2.42;;;;;;;17.78;67.53;100654.06;7368011;19;20030;-61
2023/07/03 01:40:24;;;;;;;13.65;1.00;;;;;;;17.76;67.48;100653.47;7365466;19;20023;-61
2023/07/03 01:42:54;;;;;;;13.30;0.93;;;;;;;17.76;67.15;100656.13;7363639;19;20631;-61
2023/07/03 01:45:22;;;;;;;8.55;0.70;;;;;;;17.76;67.49;100645.47;7361582;19;20011;-62
2023/07/03 01:47:49;;;;;;;10.95;0.88;;;;;;;17.75;67.41;100654.47;7363308;19;20010;-62
2023/07/03 01:50:23;;;;;;;12.07;0.70;;;;;;;17.73;67.82;100657.34;7364340;19;20664;-61
2023/07/03 01:52:54;;;;;;;14.55;1.10;;;;;;;17.71;68.15;100653.25;7365085;19;20010;-62
2023/07/03 01:55:39;;;;;;;11.02;0.88;;;;;;;17.72;68.08;100652.22;7363131;19;20018;-62
2023/07/03 01:58:19;;;;;;;11.00;0.88;;;;;;;17.70;68.13;100655.09;7364741;19;20039;-62
2023/07/03 02:00:51;;;;;;;12.65;1.00;;;;;;;17.65;68.29;100648.72;7363513;19;20014;-61
2023/07/03 02:03:40;;;;;;;11.77;1.05;;;;;;;17.62;68.10;100647.31;7363443;19;20435;-63
2023/07/03 02:06:15;;;;;;;13.20;0.85;;;;;;;17.55;68.27;100641.13;7363170;19;20018;-62
2023/07/03 02:08:44;;;;;;;13.77;0.80;;;;;;;17.51;68.24;100645.22;7364941;19;20018;-69
2023/07/03 02:11:15;;;;;;;11.85;1.08;;;;;;;17.51;68.47;100648.69;7365535;19;20498;-61
2023/07/03 02:13:43;;;;;;;10.90;0.93;;;;;;;17.51;68.87;100645.22;7362121;19;20411;-62
2023/07/03 02:16:10;;;;;;;8.02;0.80;;;;;;;17.54;68.64;100642.97;7361956;19;20019;-62
2023/07/03 02:18:38;;;;;;;14.05;0.88;;;;;;;17.50;68.58;100644.38;7362765;19;20705;-62
2023/07/03 02:21:05;;;;;;;11.00;0.88;;;;;;;17.46;68.65;100643.16;7365046;19;20014;-61
2023/07/03 02:23:33;;;;;;;14.65;0.80;;;;;;;17.49;68.39;100640.09;7364154;19;20135;-61
2023/07/03 02:26:01;;;;;;;7.18;0.63;;;;;;;17.44;68.57;100631.88;7361600;19;20036;-61
2023/07/03 02:28:29;;;;;;;11.70;0.60;;;;;;;17.43;68.70;100629.44;7360279;19;20039;-63
2023/07/03 02:30:56;;;;;;;9.32;1.05;;;;;;;17.39;69.35;100634.34;7360744;19;20033;-61
2023/07/03 02:33:24;;;;;;;8.85;1.08;;;;;;;17.37;69.95;100631.03;7361401;19;21814;-61
2023/07/03 02:35:51;;;;;;;15.32;1.25;;;;;;;17.38;69.06;100631.88;7359228;19;20055;-62
2023/07/03 02:38:19;;;;;;;10.77;1.48;;;;;;;17.43;70.15;100635.56;7364063;19;20355;-62
2023/07/03 02:40:47;;;;;;;14.77;1.80;;;;;;;17.45;69.41;100641.53;7363544;19;20129;-61
2023/07/03 02:43:15;;;;;;;8.45;0.80;;;;;;;17.42;69.43;100633.91;7362332;19;20505;-61
2023/07/03 02:45:42;;;;;;;10.50;1.38;;;;;;;17.41;68.67;100634.16;7359392;19;20924;-63
2023/07/03 02:48:11;;;;;;;13.63;1.00;;;;;;;17.40;69.46;100633.31;7361972;19;20113;-61
2023/07/03 02:50:38;;;;;;;12.07;1.00;;;;;;;17.36;69.45;100626.78;7361646;19;20786;-61
2023/07/03 02:53:07;;;;;;;7.82;0.60;;;;;;;17.34;69.93;100628.81;7362578;19;20748;-62
2023/07/03 02:55:34;;;;;;;14.38;1.08;;;;;;;17.35;70.00;100619.00;7363332;19;20174;-62
2023/07/03 02:58:03;;;;;;;12.70;0.95;;;;;;;17.31;69.58;100625.75;7361309;19;20029;-62
2023/07/03 03:00:30;;;;;;;12.70;1.13;;;;;;;17.30;69.57;100626.75;7359179;19;20086;-62
2023/07/03 03:02:57;;;;;;;12.73;1.45;;;;;;;17.29;69.67;100619.78;7360817;19;20019;-61
2023/07/03 03:05:26;;;;;;;20.08;1.60;;;;;;;17.22;69.91;100622.41;7362476;19;20015;-61
2023/07/03 03:07:53;;;;;;;16.45;0.80;;;;;;;17.20;70.05;100623.66;7362311;19;20026;-62
2023/07/03 03:10:21;;;;;;;11.65;0.98;;;;;;;17.16;70.04;100623.25;7360549;19;20019;-62
2023/07/03 03:12:48;;;;;;;10.48;1.27;;;;;;;17.18;69.80;100628.34;7363579;19;20586;-62
2023/07/03 03:15:18;;;;;;;9.13;1.00;;;;;;;17.16;70.03;100625.91;7361226;19;20804;-61
2023/07/03 03:17:45;;;;;;;8.85;0.77;;;;;;;17.10;70.18;100621.38;7361302;19;20026;-62
2023/07/03 03:20:13;;;;;;;11.63;0.73;;;;;;;17.06;70.40;100628.13;7361509;19;20534;-61
2023/07/03 03:22:41;;;;;;;14.32;2.55;;;;;;;17.07;71.20;100629.75;7360994;19;20010;-62
2023/07/03 03:25:09;;;;;;;11.25;0.90;;;;;;;17.06;70.60;100614.84;7360854;19;20049;-63
2023/07/03 03:27:36;;;;;;;14.00;1.30;;;;;;;17.04;70.45;100625.66;7361413;19;20026;-62
2023/07/03 03:30:04;;;;;;;9.27;0.80;;;;;;;17.03;70.68;100617.88;7362857;19;20010;-61
2023/07/03 03:32:32;;;;;;;8.73;0.80;;;;;;;16.99;70.89;100611.31;7364213;19;20042;-62
2023/07/03 03:35:00;;;;;;;12.55;0.90;;;;;;;16.94;70.92;100613.75;7361287;19;20071;-62
2023/07/03 03:37:28;;;;;;;10.43;0.80;;;;;;;16.90;71.03;100610.69;7355905;19;20010;-62
2023/07/03 03:39:55;;;;;;;13.18;0.80;;;;;;;16.88;71.79;100615.38;7363846;19;20090;-61
2023/07/03 03:42:23;;;;;;;11.75;0.88;;;;;;;16.81;71.99;100614.53;7366704;19;20022;-61
2023/07/03 03:44:50;;;;;;;14.30;1.33;;;;;;;16.81;72.04;100611.06;7358687;19;20022;-62
2023/07/03 03:47:19;;;;;;;11.95;1.95;;;;;;;16.75;71.91;100615.34;7359669;19;20010;-62
2023/07/03 03:49:48;;;;;;;12.18;0.70;;;;;;;16.73;71.77;100614.69;7359618;19;20021;-61
2023/07/03 03:52:15;;;;;;;16.90;0.98;;;;;;;16.73;72.19;100616.53;7361201;19;20105;-61
2023/07/03 03:54:43;;;;;;;12.52;0.95;;;;;;;16.73;72.75;100620.03;7360175;19;20006;-61
2023/07/03 03:57:12;;;;;;;12.48;0.70;;;;;;;16.69;72.53;100616.13;7362796;19;20349;-62
2023/07/03 03:59:41;;;;;;;8.75;0.85;;;;;;;16.71;73.03;100616.72;7359098;19;20046;-61
2023/07/03 04:02:08;;;;;;;11.60;0.90;;;;;;;16.70;72.75;100623.09;7357137;19;20019;-61
2023/07/03 04:04:35;;;;;;;10.52;1.02;;;;;;;16.66;72.62;100612.00;7361487;19;20867;-62
2023/07/03 04:07:04;;;;;;;14.20;1.30;;;;;;;16.63;72.48;100615.06;7358254;19;20025;-61
2023/07/03 04:09:31;;;;;;;9.48;1.00;;;;;;;16.58;72.69;100620.16;7361622;19;20022;-61
2023/07/03 04:11:59;;;;;;;12.35;0.80;;;;;;;16.52;73.01;100618.25;7359940;19;20400;-61
2023/07/03 04:14:26;;;;;;;24.17;1.88;;;;;;;16.52;73.34;100620.09;7358547;19;20729;-62
2023/07/03 04:16:57;;;;;;;10.95;0.88;;;;;;;16.53;73.20;100611.09;7357795;19;20508;-61
2023/07/03 04:19:27;;;;;;;10.82;1.02;;;;;;;16.56;73.28;100616.84;7357643;19;20002;-61
2023/07/03 04:21:55;;;;;;;9.35;0.80;;;;;;;16.59;73.06;100618.31;7359709;19;20915;-61
2023/07/03 04:24:22;;;;;;;16.80;1.30;;;;;;;16.59;72.60;100624.47;7360355;19;20041;-61
2023/07/03 04:26:54;;;;;;;12.60;1.20;;;;;;;16.62;73.10;100626.72;7361363;19;20019;-62
2023/07/03 04:29:21;;;;;;;9.15;1.35;;;;;;;16.60;73.36;100623.44;7361523;19;20015;-62
2023/07/03 04:31:49;;;;;;;10.00;1.10;;;;;;;16.60;72.82;100620.78;7364494;19;20019;-62
2023/07/03 04:34:16;;;;;;;14.10;0.80;;;;;;;16.59;72.98;100619.16;7363532;19;20913;-62
2023/07/03 04:36:44;;;;;;;13.23;1.08;;;;;;;16.57;72.36;100625.63;7367988;19;20013;-62
2023/07/03 04:39:11;;;;;;;10.35;0.85;;;;;;;16.59;72.74;100621.81;7368076;19;20028;-62
2023/07/03 04:41:38;;;;;;;8.85;0.60;;;;;;;16.59;73.02;100620.97;7365809;19;20018;-62
2023/07/03 04:44:12;;;;;;;14.88;1.42;;;;;;;16.56;73.11;100616.84;7367034;19;20018;-61
2023/07/03 04:46:40;;;;;;;12.88;0.80;;;;;;;16.56;72.99;100611.53;7359938;19;20011;-61
2023/07/03 04:49:08;;;;;;;11.30;0.88;;;;;;;16.57;72.68;100609.69;7364555;19;20006;-61
2023/07/03 04:51:36;;;;;;;10.25;0.90;;;;;;;16.53;72.50;100609.28;7367869;19;20007;-61
2023/07/03 04:54:04;;;;;;;11.10;0.75;;;;;;;16.52;72.76;100612.13;7361817;19;20022;-62
2023/07/03 04:56:33;;;;;;;11.35;1.30;;;;;;;16.62;73.40;100609.94;7365253;19;20025;-61
2023/07/03 04:59:01;;;;;;;11.25;1.50;;;;;;;16.66;73.34;100611.19;7365370;19;20015;-62
2023/07/03 05:01:29;;;;;;;8.40;1.10;;;;;;;16.72;72.65;100604.25;7364729;19;20010;-62
2023/07/03 05:03:57;;;;;;;12.57;1.13;;;;;;;16.73;72.40;100605.91;7364345;19;20018;-62
2023/07/03 05:06:25;;;;;;;8.73;1.25;;;;;;;16.73;72.57;100609.38;7367035;19;20053;-62
2023/07/03 05:08:53;;;;;;;7.68;0.95;;;;;;;16.77;72.47;100609.81;7366271;19;20371;-63
2023/07/03 05:11:20;;;;;;;10.85;0.80;;;;;;;16.81;72.52;100611.88;7367450;19;20454;-62
2023/07/03 05:13:48;;;;;;;11.65;0.70;;;;;;;16.85;72.26;100625.59;7365389;19;20011;-62
2023/07/03 05:16:15;;;;;;;11.50;1.45;;;;;;;16.84;72.38;100623.94;7362337;19;20021;-61
2023/07/03 05:18:43;;;;;;;11.50;1.00;;;;;;;16.81;72.81;100622.50;7362552;19;20029;-60
2023/07/03 05:21:11;;;;;;;11.07;0.88;;;;;;;16.79;72.72;100623.72;7365992;19;20022;-62
2023/07/03 05:23:39;;;;;;;10.98;0.90;;;;;;;16.85;72.91;100630.91;7363972;19;20014;-61
2023/07/03 05:26:06;;;;;;;10.02;1.27;;;;;;;16.90;72.72;100628.47;7364344;19;20387;-62
2023/07/03 05:28:34;;;;;;;9.30;0.90;;;;;;;16.90;72.55;100631.13;7364179;19;20022;-61
2023/07/03 05:31:03;;;;;;;7.88;0.52;;;;;;;16.90;72.57;100623.97;7364594;19;20021;-61
2023/07/03 05:33:30;;;;;;;9.45;0.90;;;;;;;16.84;72.52;100624.78;7364148;19;20146;-62
2023/07/03 05:36:01;;;;;;;8.00;0.98;;;;;;;16.84;73.52;100629.25;7364944;19;20130;-61
2023/07/03 05:38:29;;;;;;;12.57;1.50;;;;;;;16.88;73.72;100622.53;7366860;19;20014;-61
2023/07/03 05:40:56;;;;;;;13.55;0.80;;;;;;;16.91;73.23;100630.13;7366530;19;20018;-61
2023/07/03 05:43:25;;;;;;;11.68;0.63;;;;;;;16.96;72.91;100628.50;7362252;19;20118;-61
2023/07/03 05:45:53;;;;;;;8.30;0.57;;;;;;;16.97;72.11;100632.78;7364190;19;20498;-61
2023/07/03 05:48:21;;;;;;;11.75;0.80;;;;;;;16.98;72.40;100630.94;7357651;19;20018;-62
2023/07/03 05:50:48;;;;;;;9.82;0.90;;;;;;;17.01;72.13;100628.72;7364812;19;20022;-61
2023/07/03 05:53:16;;;;;;;13.30;1.17;;;;;;;17.06;72.18;100630.78;7362972;19;20998;-62
2023/07/03 05:55:43;;;;;;;10.32;0.70;;;;;;;17.06;71.97;100630.78;7363350;19;20026;-62
2023/07/03 05:58:11;;;;;;;5.45;0.73;;;;;;;17.13;71.82;100633.44;7364967;19;20492;-62
2023/07/03 06:00:38;;;;;;;12.52;0.85;;;;;;;17.17;71.18;100627.53;7361829;19;20718;-62
2023/07/03 06:03:06;;;;;;;10.27;0.55;;;;;;;17.19;71.15;100625.50;7359367;19;20011;-62
2023/07/03 06:05:33;;;;;;;5.78;0.50;;;;;;;17.26;71.06;100631.66;7365152;19;20876;-61
2023/07/03 06:08:01;;;;;;;6.85;0.70;;;;;;;17.32;70.85;100636.16;7365196;19;20366;-61
2023/07/03 06:10:29;;;;;;;7.82;0.85;;;;;;;17.34;69.85;100631.47;7363852;19;20014;-64
2023/07/03 06:12:57;;;;;;;9.32;0.60;;;;;;;17.38;70.53;100639.84;7350409;19;20016;-60
2023/07/03 06:15:24;;;;;;;10.70;0.60;;;;;;;17.48;69.77;100635.78;7309647;19;20030;-62
2023/07/03 06:17:52;;;;;;;15.10;1.60;;;;;;;17.59;69.18;100647.69;7363606;19;20023;-62
2023/07/03 06:20:19;;;;;;;6.10;0.70;;;;;;;17.58;68.55;100638.03;7362876;19;20010;-61
2023/07/03 06:22:47;;;;;;;4.18;0.40;;;;;;;17.59;68.16;100642.38;7364878;19;20014;-61
2023/07/03 06:25:14;;;;;;;5.35;0.40;;;;;;;17.57;68.13;100636.44;7364466;19;20033;-62
2023/07/03 06:27:42;;;;;;;7.43;1.50;;;;;;;17.59;68.22;100636.19;7362733;19;20018;-62
2023/07/03 06:30:10;;;;;;;6.45;0.60;;;;;;;17.62;67.86;100646.50;7359793;19;20510;-62
2023/07/03 06:32:37;;;;;;;11.10;0.50;;;;;;;17.61;66.95;100644.84;7362005;19;20023;-62
2023/07/03 06:35:06;;;;;;;8.20;0.57;;;;;;;17.73;66.90;100644.03;7361730;19;20019;-63
2023/07/03 06:37:34;;;;;;;6.68;0.60;;;;;;;17.83;66.34;100643.59;7363054;19;20509;-60
2023/07/03 06:40:09;;;;;;;6.28;0.40;;;;;;;17.82;65.40;100653.47;7359251;19;20117;-62
2023/07/03 06:42:38;;;;;;;6.30;0.40;;;;;;;17.84;65.73;100654.06;7359124;19;20018;-61
2023/07/03 06:45:07;;;;;;;7.05;0.93;;;;;;;17.88;65.48;100657.94;7356242;19;20014;-62
2023/07/03 06:47:34;;;;;;;6.90;0.50;;;;;;;17.92;65.00;100645.06;7360023;19;20052;-62
2023/07/03 06:50:02;;;;;;;8.57;0.50;;;;;;;17.94;64.88;100657.13;7356610;19;20755;-62
2023/07/03 06:52:29;;;;;;;5.50;0.40;;;;;;;17.97;63.67;100660.44;7361540;19;20022;-61
2023/07/03 06:54:57;;;;;;;2.13;0.25;;;;;;;17.96;63.15;100654.28;7359023;19;20492;-65
2023/07/03 06:57:24;;;;;;;7.25;0.40;;;;;;;17.96;62.71;100656.94;7359659;19;20022;-61
2023/07/03 06:59:51;;;;;;;3.60;0.38;;;;;;;17.92;62.99;100661.03;7355702;19;20014;-62
2023/07/03 07:02:19;;;;;;;6.07;0.40;;;;;;;17.93;63.37;100665.31;7342086;19;20089;-61
2023/07/03 07:04:47;;;;;;;10.60;1.02;;;;;;;17.97;62.15;100663.91;7363769;19;20491;-62
2023/07/03 07:07:14;;;;;;;10.23;0.50;;;;;;;18.00;62.53;100665.31;7360054;19;20026;-62
2023/07/03 07:09:42;;;;;;;4.68;0.50;;;;;;;17.96;61.57;100667.59;7361753;19;20010;-62
2023/07/03 07:12:09;;;;;;;4.78;0.40;;;;;;;17.93;60.44;100660.81;7364313;19;20021;-62
2023/07/03 07:14:36;;;;;;;6.03;0.57;;;;;;;17.84;58.77;100667.38;7361887;19;20011;-62
2023/07/03 07:17:04;;;;;;;4.32;0.88;;;;;;;17.80;59.79;100666.16;7360148;19;20566;-61
2023/07/03 07:19:32;;;;;;;7.25;0.38;;;;;;;17.82;60.46;100668.63;7359537;19;20726;-61
2023/07/03 07:21:59;;;;;;;4.35;0.50;;;;;;;17.84;60.01;100666.56;7361540;19;21681;-63
2023/07/03 07:24:28;;;;;;;6.97;0.40;;;;;;;17.91;60.21;100665.53;7355364;19;21087;-61
2023/07/03 07:26:57;;;;;;;9.63;0.50;;;;;;;17.93;59.11;100666.16;7361656;19;20022;-61
2023/07/03 07:29:25;;;;;;;5.03;0.40;;;;;;;17.95;58.85;100671.28;7357014;19;21008;-61
2023/07/03 07:31:55;;;;;;;3.03;0.30;;;;;;;17.96;57.99;100670.25;7358207;19;20082;-62
2023/07/03 07:34:24;;;;;;;5.13;0.35;;;;;;;18.02;58.44;100669.44;7359334;19;20022;-60
2023/07/03 07:36:52;;;;;;;3.88;0.30;;;;;;;18.04;56.80;100664.72;7361008;19;20063;-61
2023/07/03 07:39:20;;;;;;;5.47;0.40;;;;;;;18.15;56.54;100649.97;7361175;19;20011;-61
2023/07/03 07:41:51;;;;;;;3.55;0.20;;;;;;;18.37;55.59;100662.84;7362074;19;20134;-62
2023/07/03 07:44:19;;;;;;;6.63;0.40;;;;;;;18.84;55.69;100668.09;7361526;19;20026;-60
2023/07/03 07:46:46;;;;;;;5.30;0.20;;;;;;;19.61;53.54;100667.91;7361521;19;20029;-62
2023/07/03 07:49:14;;;;;;;6.03;0.32;;;;;;;20.40;50.37;100665.44;7355464;19;20632;-62
2023/07/03 07:51:41;;;;;;;5.57;0.40;;;;;;;20.78;48.51;100667.88;7358796;19;20015;-62
2023/07/03 07:54:09;;;;;;;3.55;0.30;;;;;;;20.75;46.64;100667.53;7362225;19;20490;-61
2023/07/03 07:56:36;;;;;;;3.40;0.30;;;;;;;20.62;47.35;100665.81;7359907;19;20114;-62
2023/07/03 07:59:04;;;;;;;6.50;0.30;;;;;;;20.59;47.93;100662.75;7359903;19;20022;-63
2023/07/03 08:01:32;;;;;;;3.92;0.30;;;;;;;20.62;47.72;100668.47;7361554;19;20014;-62
2023/07/03 08:03:59;;;;;;;3.40;0.30;;;;;;;20.53;46.97;100666.31;7360307;19;20570;-61
2023/07/03 08:06:27;;;;;;;3.30;0.40;;;;;;;20.30;48.86;100661.59;7359763;19;20022;-62
2023/07/03 08:08:55;;;;;;;5.22;0.25;;;;;;;20.09;50.52;100670.84;7362562;19;20022;-61
2023/07/03 08:11:26;;;;;;;13.48;0.68;;;;;;;19.97;50.53;100664.56;7360486;19;20041;-63
2023/07/03 08:13:54;;;;;;;12.90;0.60;;;;;;;19.81;48.81;100667.78;7361065;19;20027;-61
2023/07/03 08:16:21;;;;;;;8.18;0.93;;;;;;;19.76;51.59;100657.72;7360819;19;20040;-62
2023/07/03 08:18:49;;;;;;;5.43;0.30;;;;;;;19.64;51.51;100660.31;7358441;19;20094;-62
2023/07/03 08:21:17;;;;;;;5.18;0.90;;;;;;;19.55;51.49;100666.94;7359387;19;20026;-63
2023/07/03 08:23:44;;;;;;;2.33;0.30;;;;;;;19.46;49.65;100668.22;7361510;19;20132;-63
2023/07/03 08:26:23;;;;;;;3.08;0.30;;;;;;;19.40;51.05;100677.03;7359619;19;20029;-62
2023/07/03 08:28:52;;;;;;;6.18;0.35;;;;;;;19.40;50.57;100665.56;7360515;19;20845;-62
2023/07/03 08:31:20;;;;;;;3.30;0.30;;;;;;;19.49;49.19;100674.97;7358734;19;20021;-61
2023/07/03 08:33:52;;;;;;;3.03;0.20;;;;;;;19.67;49.04;100666.22;7359079;19;20025;-60
2023/07/03 08:36:19;;;;;;;4.60;0.40;;;;;;;19.92;48.44;100672.41;7359588;19;20029;-62
2023/07/03 08:38:50;;;;;;;4.90;0.30;;;;;;;20.07;49.27;100670.22;7358729;19;20032;-61
2023/07/03 08:41:18;;;;;;;5.40;0.30;;;;;;;20.13;48.83;100673.88;7358793;19;20018;-61
2023/07/03 08:43:49;;;;;;;4.35;0.30;;;;;;;20.13;47.74;100677.38;7358613;19;20020;-63
2023/07/03 08:46:21;;;;;;;2.88;0.30;;;;;;;20.03;47.24;100677.88;7357274;19;20119;-62
2023/07/03 08:48:53;;;;;;;6.90;0.30;;;;;;;19.99;46.62;100682.03;7356056;19;20046;-62
2023/07/03 08:51:24;;;;;;;14.38;1.00;;;;;;;19.89;46.96;100684.34;7358365;19;20018;-62
2023/07/03 08:53:56;;;;;;;4.97;0.30;;;;;;;19.72;48.18;100677.91;7362060;19;20019;-63
2023/07/03 08:56:28;;;;;;;5.90;0.40;;;;;;;19.69;49.58;100682.88;7361505;19;20026;-62
2023/07/03 08:58:56;;;;;;;4.13;0.30;;;;;;;19.63;49.51;100677.34;7361243;19;20015;-62
2023/07/03 09:01:42;;;;;;;4.40;0.30;;;;;;;19.54;49.17;100669.81;7296653;19;20014;-62
2023/07/03 09:04:20;;;;;;;6.00;0.70;;;;;;;19.53;49.50;100673.50;7353535;19;20014;-62
2023/07/03 09:06:51;;;;;;;4.10;0.38;;;;;;;19.48;50.38;100676.84;7359551;19;20534;-62
2023/07/03 09:09:30;;;;;;;5.63;0.55;;;;;;;19.36;49.21;100665.16;7359051;19;20015;-63
2023/07/03 09:12:08;;;;;;;3.85;0.30;;;;;;;19.32;50.37;100674.63;7356131;19;20014;-64
2023/07/03 09:14:43;;;;;;;8.88;0.40;;;;;;;19.29;50.57;100666.25;7356484;19;20026;-62
2023/07/03 09:17:12;;;;;;;4.32;0.98;;;;;;;19.28;50.46;100669.94;7359584;19;20014;-62
2023/07/03 09:19:45;;;;;;;5.57;0.55;;;;;;;19.24;50.48;100661.56;7364717;19;20015;-61
2023/07/03 09:22:33;;;;;;;5.15;0.40;;;;;;;19.21;49.87;100654.78;7363466;19;20018;-61
2023/07/03 09:25:04;;;;;;;5.15;0.40;;;;;;;19.27;51.12;100655.78;7363576;19;20014;-61
2023/07/03 09:27:32;;;;;;;5.88;0.30;;;;;;;19.36;50.30;100664.34;7366201;19;20011;-63
2023/07/03 09:30:07;;;;;;;4.30;0.30;;;;;;;19.44;50.15;100662.28;7362775;19;20011;-61
2023/07/03 09:32:35;;;;;;;4.90;0.30;;;;;;;19.51;49.81;100665.72;7359531;19;20033;-62
2023/07/03 09:35:12;;;;;;;5.65;0.50;;;;;;;19.56;50.63;100667.72;7362639;19;20010;-62
2023/07/03 09:37:43;;;;;;;4.35;0.60;;;;;;;19.53;50.36;100652.97;7363362;19;20015;-62
2023/07/03 09:40:22;;;;;;;5.72;0.40;;;;;;;19.54;50.78;100661.81;7363846;19;20034;-64
2023/07/03 09:42:52;;;;;;;4.97;0.50;;;;;;;19.60;49.94;100650.28;7363408;19;20730;-63
2023/07/03 09:45:28;;;;;;;7.53;0.43;;;;;;;19.69;50.20;100650.81;7365457;19;20487;-63
2023/07/03 09:48:00;;;;;;;4.05;0.45;;;;;;;19.83;50.56;100650.50;7363736;19;20023;-61
2023/07/03 09:50:35;;;;;;;8.68;0.50;;;;;;;19.95;50.50;100643.44;7364987;19;20567;-63
2023/07/03 09:53:04;;;;;;;5.55;0.45;;;;;;;20.10;50.19;100642.25;7362940;19;20018;-62
2023/07/03 09:55:36;;;;;;;5.38;0.32;;;;;;;20.20;50.59;100639.91;7363618;19;20018;-63
2023/07/03 09:58:12;;;;;;;4.00;0.30;;;;;;;20.20;50.14;100638.06;7367040;19;20014;-61
2023/07/03 10:00:45;;;;;;;3.95;0.57;;;;;;;20.15;50.92;100637.91;7360136;19;20018;-62
2023/07/03 10:03:23;;;;;;;3.97;0.40;;;;;;;20.18;51.69;100650.81;7359893;19;20067;-62
2023/07/03 10:05:55;;;;;;;6.15;0.50;;;;;;;20.12;51.55;100662.38;7363705;19;20029;-62
2023/07/03 10:08:27;;;;;;;8.15;0.40;;;;;;;20.07;53.07;100657.69;7356983;19;20014;-62
2023/07/03 10:11:00;;;;;;;5.53;0.30;;;;;;;19.95;52.47;100650.63;7363905;19;20010;-63
2023/07/03 10:13:37;;;;;;;3.15;0.40;;;;;;;19.88;53.58;100645.31;7361693;19;20019;-61
2023/07/03 10:16:07;;;;;;;4.03;0.30;;;;;;;19.82;53.65;100656.88;7364016;19;20653;-62
2023/07/03 10:18:38;;;;;;;2.97;0.30;;;;;;;19.78;54.00;100662.88;7365483;19;20022;-62
2023/07/03 10:21:10;;;;;;;4.30;0.47;;;;;;;19.75;54.19;100658.78;7363558;19;21211;-62
2023/07/03 10:23:41;;;;;;;7.88;0.80;;;;;;;19.72;55.22;100659.22;7366069;19;20019;-60
2023/07/03 10:26:16;;;;;;;5.70;0.50;;;;;;;19.67;54.86;100658.22;7364740;19;20022;-61
2023/07/03 10:28:56;;;;;;;6.38;0.60;;;;;;;19.59;55.10;100657.47;7360879;19;20085;-61
2023/07/03 10:31:50;;;;;;;7.22;0.60;;;;;;;19.56;55.79;100662.41;7362913;19;20031;-64
2023/07/03 10:34:23;;;;;;;6.07;0.50;;;;;;;19.53;56.18;100669.00;7363026;19;20019;-61
2023/07/03 10:37:05;;;;;;;5.95;0.50;;;;;;;19.45;55.98;100663.94;7365312;19;21703;-62
2023/07/03 10:39:41;;;;;;;5.88;0.40;;;;;;;19.39;57.94;100670.09;7362905;19;20010;-61
2023/07/03 10:42:22;;;;;;;6.30;0.40;;;;;;;19.36;58.07;100659.00;7364239;19;20023;-61
2023/07/03 10:44:56;;;;;;;4.72;0.50;;;;;;;19.36;59.30;100661.66;7363969;19;20025;-61
2023/07/03 10:47:36;;;;;;;4.38;0.40;;;;;;;19.39;58.83;100659.41;7362742;19;20011;-61
2023/07/03 10:50:06;;;;;;;4.03;0.32;;;;;;;19.48;57.89;100654.66;7364048;19;20014;-62
2023/07/03 10:52:40;;;;;;;4.03;0.40;;;;;;;19.49;58.17;100658.97;7358999;19;21735;-62
2023/07/03 10:55:28;;;;;;;7.07;0.60;;;;;;;19.48;57.07;100643.97;7360227;19;20070;-62
2023/07/03 10:58:12;;;;;;;4.57;0.50;;;;;;;19.51;57.07;100649.69;7363093;19;20049;-62
2023/07/03 11:00:54;;;;;;;3.72;0.40;;;;;;;19.59;57.15;100643.28;7359367;19;20041;-61
2023/07/03 11:03:37;;;;;;;2.53;0.30;;;;;;;19.76;57.32;100632.91;7360841;19;20018;-61
2023/07/03 11:06:31;;;;;;;4.93;0.45;;;;;;;19.95;57.16;100629.25;7363202;19;20014;-62
2023/07/03 11:09:09;;;;;;;6.93;0.50;;;;;;;20.03;56.26;100637.78;7363654;19;20029;-62
2023/07/03 11:11:47;;;;;;;5.38;0.40;;;;;;;20.13;56.20;100623.09;7359908;19;20022;-62
2023/07/03 11:14:15;;;;;;;3.78;0.40;;;;;;;20.20;54.87;100622.03;7361539;19;20114;-63
2023/07/03 11:16:52;;;;;;;3.45;0.60;;;;;;;20.18;53.67;100620.59;7358519;19;20018;-61
2023/07/03 11:19:37;;;;;;;6.75;0.60;;;;;;;20.23;54.01;100610.06;7359069;19;20051;-63
2023/07/03 11:22:17;;;;;;;5.35;0.50;;;;;;;20.30;54.11;100610.81;7360615;19;20025;-61
2023/07/03 11:25:00;;;;;;;4.53;0.63;;;;;;;20.28;53.79;100605.69;7360941;19;20024;-62
2023/07/03 11:27:46;;;;;;;5.25;0.50;;;;;;;20.32;53.68;100601.56;7360885;19;20476;-62
2023/07/03 11:30:17;;;;;;;3.53;0.70;;;;;;;20.32;53.46;100616.78;7360703;19;20620;-61
2023/07/03 11:32:46;;;;;;;4.65;0.50;;;;;;;20.31;52.82;100596.47;7362122;19;20026;-61
2023/07/03 11:35:14;;;;;;;3.70;0.50;;;;;;;20.33;53.81;100583.66;7361499;19;20022;-63